createdAt,value
2018-09-09T00:00:53.887Z,1014.42
2018-09-09T00:02:02.528Z,1014.41
2018-09-09T00:03:11.438Z,1014.4
2018-09-09T00:04:20.339Z,1014.43
2018-09-09T00:05:29.259Z,1014.43
2018-09-09T00:06:37.902Z,1014.43
2018-09-09T00:07:46.549Z,1014.48
2018-09-09T00:08:55.186Z,1014.51
2018-09-09T00:10:03.831Z,1014.51
2018-09-09T00:11:12.479Z,1014.49
2018-09-09T00:12:21.390Z,1014.52
2018-09-09T00:13:30.039Z,1014.53
2018-09-09T00:14:38.672Z,1014.54
2018-09-09T00:15:47.865Z,1014.5
2018-09-09T00:16:57.027Z,1014.52
2018-09-09T00:18:05.679Z,1014.54
2018-09-09T00:19:14.315Z,1014.54
2018-09-09T00:20:22.965Z,1014.53
2018-09-09T00:21:31.605Z,1014.53
2018-09-09T00:22:40.257Z,1014.52
2018-09-09T00:23:48.890Z,1014.53
2018-09-09T00:24:57.537Z,1014.53
2018-09-09T00:26:06.179Z,1014.52
2018-09-09T00:27:14.834Z,1014.52
2018-09-09T00:28:23.742Z,1014.5
2018-09-09T00:29:32.389Z,1014.5
2018-09-09T00:30:41.041Z,1014.48
2018-09-09T00:31:49.676Z,1014.46
2018-09-09T00:32:58.329Z,1014.49
2018-09-09T00:34:07.231Z,1014.48
2018-09-09T00:35:15.886Z,1014.5
2018-09-09T00:36:24.521Z,1014.46
2018-09-09T00:37:33.174Z,1014.46
2018-09-09T00:38:41.814Z,1014.44
2018-09-09T00:39:50.463Z,1014.41
2018-09-09T00:40:59.095Z,1014.42
2018-09-09T00:42:07.742Z,1014.45
2018-09-09T00:43:16.384Z,1014.45
2018-09-09T00:44:25.033Z,1014.45
2018-09-09T00:45:33.665Z,1014.5
2018-09-09T00:46:42.312Z,1014.51
2018-09-09T00:47:50.960Z,1014.52
2018-09-09T00:48:59.605Z,1014.52
2018-09-09T00:50:08.256Z,1014.5
2018-09-09T00:51:16.900Z,1014.53
2018-09-09T00:52:25.807Z,1014.5
2018-09-09T00:53:34.452Z,1014.48
2018-09-09T00:54:43.102Z,1014.5
2018-09-09T00:55:52.005Z,1014.51
2018-09-09T00:57:00.651Z,1014.53
2018-09-09T00:58:09.301Z,1014.51
2018-09-09T00:59:18.213Z,1014.49
2018-09-09T01:00:27.125Z,1014.51
2018-09-09T01:01:36.023Z,1014.49
2018-09-09T01:02:44.666Z,1014.49
2018-09-09T01:03:53.582Z,1014.45
2018-09-09T01:05:02.219Z,1014.43
2018-09-09T01:06:10.868Z,1014.44
2018-09-09T01:07:19.511Z,1014.42
2018-09-09T01:08:28.153Z,1014.43
2018-09-09T01:09:36.802Z,1014.44
2018-09-09T01:10:45.719Z,1014.46
2018-09-09T01:11:54.363Z,1014.49
2018-09-09T01:13:03.001Z,1014.5
2018-09-09T01:14:11.653Z,1014.53
2018-09-09T01:15:20.562Z,1014.5
2018-09-09T01:16:29.468Z,1014.46
2018-09-09T01:17:38.105Z,1014.47
2018-09-09T01:18:47.024Z,1014.48
2018-09-09T01:19:55.937Z,1014.4
2018-09-09T01:21:04.850Z,1014.42
2018-09-09T01:22:13.765Z,1014.42
2018-09-09T01:23:22.679Z,1014.44
2018-09-09T01:24:31.326Z,1014.43
2018-09-09T01:25:39.972Z,1014.39
2018-09-09T01:26:48.617Z,1014.4
2018-09-09T01:27:57.257Z,1014.43
2018-09-09T01:29:05.907Z,1014.42
2018-09-09T01:30:14.552Z,1014.42
2018-09-09T01:31:23.467Z,1014.41
2018-09-09T01:32:32.370Z,1014.44
2018-09-09T01:33:41.017Z,1014.43
2018-09-09T01:34:49.926Z,1014.39
2018-09-09T01:35:58.577Z,1014.35
2018-09-09T01:37:07.482Z,1014.38
2018-09-09T01:38:16.399Z,1014.35
2018-09-09T01:39:25.043Z,1014.33
2018-09-09T01:40:33.695Z,1014.34
2018-09-09T01:41:42.599Z,1014.34
2018-09-09T01:42:51.519Z,1014.36
2018-09-09T01:44:00.425Z,1014.32
2018-09-09T01:45:09.068Z,1014.34
2018-09-09T01:46:17.716Z,1014.36
2018-09-09T01:47:26.360Z,1014.39
2018-09-09T01:48:35.001Z,1014.38
2018-09-09T01:49:43.651Z,1014.38
2018-09-09T01:50:52.290Z,1014.41
2018-09-09T01:52:00.934Z,1014.38
2018-09-09T01:53:09.581Z,1014.41
2018-09-09T01:54:18.228Z,1014.41
2018-09-09T01:55:26.866Z,1014.41
2018-09-09T01:56:35.774Z,1014.47
2018-09-09T01:57:44.415Z,1014.41
2018-09-09T01:58:53.063Z,1014.39
2018-09-09T02:00:01.704Z,1014.42
2018-09-09T02:01:10.348Z,1014.46
2018-09-09T02:02:19.256Z,1014.4
2018-09-09T02:03:27.900Z,1014.41
2018-09-09T02:04:36.546Z,1014.39
2018-09-09T02:05:45.189Z,1014.43
2018-09-09T02:06:53.833Z,1014.45
2018-09-09T02:08:02.477Z,1014.42
2018-09-09T02:09:11.125Z,1014.45
2018-09-09T02:10:19.769Z,1014.5
2018-09-09T02:11:28.416Z,1014.5
2018-09-09T02:12:37.056Z,1014.48
2018-09-09T02:13:45.706Z,1014.52
2018-09-09T02:14:54.348Z,1014.52
2018-09-09T02:16:02.995Z,1014.53
2018-09-09T02:17:11.634Z,1014.53
2018-09-09T02:18:20.279Z,1014.52
2018-09-09T02:19:28.925Z,1014.44
2018-09-09T02:20:37.571Z,1014.43
2018-09-09T02:21:46.217Z,1014.46
2018-09-09T02:22:54.860Z,1014.42
2018-09-09T02:24:03.774Z,1014.42
2018-09-09T02:25:12.420Z,1014.37
2018-09-09T02:26:21.336Z,1014.36
2018-09-09T02:27:29.976Z,1014.4
2018-09-09T02:28:38.619Z,1014.41
2018-09-09T02:29:47.262Z,1014.37
2018-09-09T02:30:55.923Z,1014.41
2018-09-09T02:32:04.828Z,1014.41
2018-09-09T02:33:13.470Z,1014.42
2018-09-09T02:34:22.374Z,1014.41
2018-09-09T02:35:31.020Z,1014.42
2018-09-09T02:36:39.662Z,1014.34
2018-09-09T02:37:48.579Z,1014.4
2018-09-09T02:38:57.482Z,1014.42
2018-09-09T02:40:06.398Z,1014.47
2018-09-09T02:41:15.311Z,1014.48
2018-09-09T02:42:23.958Z,1014.46
2018-09-09T02:43:32.604Z,1014.44
2018-09-09T02:44:41.597Z,1014.47
2018-09-09T02:45:50.250Z,1014.47
2018-09-09T02:46:58.888Z,1014.49
2018-09-09T02:48:07.541Z,1014.48
2018-09-09T02:49:16.186Z,1014.43
2018-09-09T02:50:24.838Z,1014.42
2018-09-09T02:51:33.479Z,1014.37
2018-09-09T02:52:42.137Z,1014.33
2018-09-09T02:53:51.044Z,1014.31
2018-09-09T02:54:59.691Z,1014.32
2018-09-09T02:56:08.350Z,1014.34
2018-09-09T02:57:17.272Z,1014.38
2018-09-09T02:58:25.920Z,1014.39
2018-09-09T02:59:34.821Z,1014.37
2018-09-09T03:00:43.476Z,1014.35
2018-09-09T03:01:52.383Z,1014.37
2018-09-09T03:03:01.037Z,1014.4
2018-09-09T03:04:09.933Z,1014.39
2018-09-09T03:05:18.598Z,1014.46
2018-09-09T03:06:27.777Z,1014.49
2018-09-09T03:07:36.432Z,1014.52
2018-09-09T03:08:45.335Z,1014.57
2018-09-09T03:09:54.255Z,1014.5
2018-09-09T03:11:03.157Z,1014.45
2018-09-09T03:12:12.072Z,1014.42
2018-09-09T03:13:20.714Z,1014.4
2018-09-09T03:14:29.364Z,1014.41
2018-09-09T03:15:38.266Z,1014.45
2018-09-09T03:16:46.910Z,1014.42
2018-09-09T03:17:55.566Z,1014.47
2018-09-09T03:19:04.469Z,1014.46
2018-09-09T03:20:13.390Z,1014.47
2018-09-09T03:21:22.030Z,1014.47
2018-09-09T03:22:30.949Z,1014.46
2018-09-09T03:23:39.589Z,1014.45
2018-09-09T03:24:48.511Z,1014.44
2018-09-09T03:25:57.144Z,1014.45
2018-09-09T03:27:05.840Z,1014.43
2018-09-09T03:28:14.709Z,1014.42
2018-09-09T03:29:23.359Z,1014.4
2018-09-09T03:30:31.996Z,1014.4
2018-09-09T03:31:40.647Z,1014.32
2018-09-09T03:32:49.565Z,1014.33
2018-09-09T03:33:58.212Z,1014.27
2018-09-09T03:35:06.862Z,1014.22
2018-09-09T03:36:15.504Z,1014.19
2018-09-09T03:37:24.412Z,1014.2
2018-09-09T03:38:33.053Z,1014.19
2018-09-09T03:39:41.707Z,1014.22
2018-09-09T03:40:50.345Z,1014.23
2018-09-09T03:41:58.996Z,1014.18
2018-09-09T03:43:07.900Z,1014.21
2018-09-09T03:44:16.555Z,1014.18
2018-09-09T03:45:25.455Z,1014.2
2018-09-09T03:46:34.100Z,1014.23
2018-09-09T03:47:42.740Z,1014.25
2018-09-09T03:48:51.389Z,1014.23
2018-09-09T03:50:00.031Z,1014.21
2018-09-09T03:51:08.674Z,1014.21
2018-09-09T03:52:17.316Z,1014.25
2018-09-09T03:53:25.960Z,1014.29
2018-09-09T03:54:34.613Z,1014.26
2018-09-09T03:55:43.253Z,1014.28
2018-09-09T03:56:52.162Z,1014.24
2018-09-09T03:58:01.069Z,1014.3
2018-09-09T03:59:09.982Z,1014.32
2018-09-09T04:00:18.630Z,1014.33
2018-09-09T04:01:27.270Z,1014.38
2018-09-09T04:02:36.168Z,1014.4
2018-09-09T04:03:44.819Z,1014.44
2018-09-09T04:04:53.739Z,1014.4
2018-09-09T04:06:02.385Z,1014.39
2018-09-09T04:07:11.026Z,1014.38
2018-09-09T04:08:19.941Z,1014.39
2018-09-09T04:09:28.850Z,1014.43
2018-09-09T04:10:37.771Z,1014.43
2018-09-09T04:11:46.417Z,1014.44
2018-09-09T04:12:55.063Z,1014.46
2018-09-09T04:14:03.973Z,1014.44
2018-09-09T04:15:13.147Z,1014.4
2018-09-09T04:16:21.794Z,1014.46
2018-09-09T04:17:30.435Z,1014.45
2018-09-09T04:18:39.083Z,1014.45
2018-09-09T04:19:47.734Z,1014.49
2018-09-09T04:20:56.379Z,1014.49
2018-09-09T04:22:05.021Z,1014.46
2018-09-09T04:23:13.672Z,1014.46
2018-09-09T04:24:22.309Z,1014.48
2018-09-09T04:25:30.957Z,1014.5
2018-09-09T04:26:39.597Z,1014.54
2018-09-09T04:27:48.499Z,1014.49
2018-09-09T04:28:57.144Z,1014.51
2018-09-09T04:30:06.053Z,1014.49
2018-09-09T04:31:14.698Z,1014.37
2018-09-09T04:32:23.347Z,1014.4
2018-09-09T04:33:31.995Z,1014.43
2018-09-09T04:34:40.892Z,1014.48
2018-09-09T04:35:49.546Z,1014.42
2018-09-09T04:36:58.446Z,1014.44
2018-09-09T04:38:07.089Z,1014.43
2018-09-09T04:39:15.735Z,1014.45
2018-09-09T04:40:24.927Z,1014.46
2018-09-09T04:41:33.837Z,1014.43
2018-09-09T04:42:42.746Z,1014.46
2018-09-09T04:43:51.386Z,1014.46
2018-09-09T04:45:00.310Z,1014.43
2018-09-09T04:46:09.293Z,1014.44
2018-09-09T04:47:17.885Z,1014.47
2018-09-09T04:48:26.534Z,1014.48
2018-09-09T04:49:35.169Z,1014.49
2018-09-09T04:50:43.816Z,1014.46
2018-09-09T04:51:52.456Z,1014.44
2018-09-09T04:53:01.119Z,1014.5
2018-09-09T04:54:09.756Z,1014.52
2018-09-09T04:55:18.670Z,1014.55
2018-09-09T04:56:27.308Z,1014.57
2018-09-09T04:57:36.234Z,1014.55
2018-09-09T04:58:44.869Z,1014.49
2018-09-09T04:59:53.783Z,1014.5
2018-09-09T05:01:02.421Z,1014.51
2018-09-09T05:02:11.072Z,1014.55
2018-09-09T05:03:19.716Z,1014.57
2018-09-09T05:04:28.355Z,1014.6
2018-09-09T05:05:36.999Z,1014.59
2018-09-09T05:06:45.640Z,1014.64
2018-09-09T05:07:54.292Z,1014.65
2018-09-09T05:09:03.206Z,1014.62
2018-09-09T05:10:11.845Z,1014.67
2018-09-09T05:11:20.483Z,1014.69
2018-09-09T05:12:29.133Z,1014.7
2018-09-09T05:13:37.774Z,1014.71
2018-09-09T05:14:46.423Z,1014.7
2018-09-09T05:15:55.327Z,1014.69
2018-09-09T05:17:03.982Z,1014.71
2018-09-09T05:18:12.625Z,1014.71
2018-09-09T05:19:21.271Z,1014.81
2018-09-09T05:20:29.906Z,1014.78
2018-09-09T05:21:38.815Z,1014.81
2018-09-09T05:22:47.461Z,1014.79
2018-09-09T05:23:56.109Z,1014.79
2018-09-09T05:25:04.756Z,1014.83
2018-09-09T05:26:13.392Z,1014.85
2018-09-09T05:27:22.043Z,1014.88
2018-09-09T05:28:30.681Z,1014.91
2018-09-09T05:29:39.334Z,1014.9
2018-09-09T05:30:48.232Z,1014.91
2018-09-09T05:31:56.883Z,1014.9
2018-09-09T05:33:05.786Z,1014.89
2018-09-09T05:34:14.438Z,1014.88
2018-09-09T05:35:23.073Z,1014.88
2018-09-09T05:36:31.720Z,1014.87
2018-09-09T05:37:40.362Z,1014.86
2018-09-09T05:38:49.280Z,1014.88
2018-09-09T05:39:57.922Z,1014.85
2018-09-09T05:41:06.562Z,1014.88
2018-09-09T05:42:15.290Z,1014.91
2018-09-09T05:43:23.856Z,1014.97
2018-09-09T05:44:32.525Z,1014.91
2018-09-09T05:45:41.140Z,1014.87
2018-09-09T05:46:50.058Z,1014.84
2018-09-09T05:47:58.972Z,1014.81
2018-09-09T05:49:07.883Z,1014.81
2018-09-09T05:50:16.837Z,1014.85
2018-09-09T05:51:26.012Z,1014.89
2018-09-09T05:52:34.666Z,1014.89
2018-09-09T05:53:43.609Z,1014.91
2018-09-09T05:54:52.209Z,1014.94
2018-09-09T05:56:00.850Z,1014.97
2018-09-09T05:57:09.501Z,1014.97
2018-09-09T05:58:18.142Z,1014.98
2018-09-09T05:59:26.781Z,1014.96
2018-09-09T06:00:35.421Z,1014.96
2018-09-09T06:01:44.064Z,1014.91
2018-09-09T06:02:52.729Z,1014.92
2018-09-09T06:04:01.631Z,1014.92
2018-09-09T06:05:10.282Z,1014.89
2018-09-09T06:06:18.915Z,1014.92
2018-09-09T06:07:27.839Z,1014.88
2018-09-09T06:08:36.479Z,1014.89
2018-09-09T06:09:45.124Z,1014.89
2018-09-09T06:10:53.758Z,1014.89
2018-09-09T06:12:02.411Z,1014.9
2018-09-09T06:13:11.054Z,1014.88
2018-09-09T06:14:19.699Z,1014.92
2018-09-09T06:15:28.333Z,1014.95
2018-09-09T06:16:36.977Z,1014.92
2018-09-09T06:17:45.904Z,1014.92
2018-09-09T06:18:54.816Z,1014.96
2018-09-09T06:20:03.462Z,1014.93
2018-09-09T06:21:12.100Z,1014.97
2018-09-09T06:22:20.750Z,1015.02
2018-09-09T06:23:29.393Z,1015.05
2018-09-09T06:24:38.050Z,1015.04
2018-09-09T06:25:46.688Z,1015.04
2018-09-09T06:26:55.336Z,1015.09
2018-09-09T06:28:03.977Z,1015.09
2018-09-09T06:29:13.459Z,1015.1
2018-09-09T06:30:22.100Z,1015.11
2018-09-09T06:31:30.749Z,1015.15
2018-09-09T06:32:39.391Z,1015.14
2018-09-09T06:33:48.094Z,1015.15
2018-09-09T06:34:56.689Z,1015.13
2018-09-09T06:36:05.331Z,1015.15
2018-09-09T06:37:13.977Z,1015.1
2018-09-09T06:38:22.618Z,1015.13
2018-09-09T06:39:31.277Z,1015.15
2018-09-09T06:40:39.916Z,1015.18
2018-09-09T06:41:48.564Z,1015.23
2018-09-09T06:42:57.466Z,1015.26
2018-09-09T06:44:06.116Z,1015.29
2018-09-09T06:45:14.759Z,1015.28
2018-09-09T06:46:23.455Z,1015.26
2018-09-09T06:47:32.456Z,1015.3
2018-09-09T06:48:41.107Z,1015.33
2018-09-09T06:49:49.749Z,1015.3
2018-09-09T06:50:58.400Z,1015.26
2018-09-09T06:52:07.038Z,1015.31
2018-09-09T06:53:15.944Z,1015.36
2018-09-09T06:54:24.588Z,1015.33
2018-09-09T06:55:33.362Z,1015.32
2018-09-09T06:56:41.883Z,1015.3
2018-09-09T06:57:50.784Z,1015.33
2018-09-09T06:58:59.429Z,1015.32
2018-09-09T07:00:08.344Z,1015.27
2018-09-09T07:01:17.261Z,1015.28
2018-09-09T07:02:25.971Z,1015.26
2018-09-09T07:03:34.806Z,1015.29
2018-09-09T07:04:43.456Z,1015.29
2018-09-09T07:05:52.106Z,1015.28
2018-09-09T07:07:00.746Z,1015.32
2018-09-09T07:08:09.656Z,1015.29
2018-09-09T07:09:18.304Z,1015.29
2018-09-09T07:10:26.954Z,1015.31
2018-09-09T07:11:35.710Z,1015.28
2018-09-09T07:12:44.242Z,1015.32
2018-09-09T07:13:53.149Z,1015.34
2018-09-09T07:15:01.792Z,1015.37
2018-09-09T07:16:10.442Z,1015.38
2018-09-09T07:17:19.089Z,1015.4
2018-09-09T07:18:27.733Z,1015.45
2018-09-09T07:19:36.377Z,1015.43
2018-09-09T07:20:45.027Z,1015.43
2018-09-09T07:21:53.674Z,1015.47
2018-09-09T07:23:02.318Z,1015.46
2018-09-09T07:24:10.966Z,1015.49
2018-09-09T07:25:20.149Z,1015.44
2018-09-09T07:26:28.791Z,1015.44
2018-09-09T07:27:37.440Z,1015.47
2018-09-09T07:28:46.081Z,1015.46
2018-09-09T07:29:54.730Z,1015.45
2018-09-09T07:31:03.388Z,1015.44
2018-09-09T07:32:12.026Z,1015.44
2018-09-09T07:33:20.674Z,1015.46
2018-09-09T07:34:29.317Z,1015.45
2018-09-09T07:35:38.226Z,1015.45
2018-09-09T07:36:46.874Z,1015.48
2018-09-09T07:37:55.531Z,1015.51
2018-09-09T07:39:04.442Z,1015.52
2018-09-09T07:40:13.085Z,1015.49
2018-09-09T07:41:21.738Z,1015.51
2018-09-09T07:42:30.375Z,1015.49
2018-09-09T07:43:39.295Z,1015.52
2018-09-09T07:44:47.940Z,1015.52
2018-09-09T07:45:57.125Z,1015.55
2018-09-09T07:47:05.767Z,1015.55
2018-09-09T07:48:14.686Z,1015.56
2018-09-09T07:49:23.336Z,1015.59
2018-09-09T07:50:31.996Z,1015.6
2018-09-09T07:51:41.007Z,1015.63
2018-09-09T07:52:49.646Z,1015.66
2018-09-09T07:53:58.297Z,1015.66
2018-09-09T07:55:06.940Z,1015.65
2018-09-09T07:56:15.597Z,1015.68
2018-09-09T07:57:24.232Z,1015.67
2018-09-09T07:58:32.883Z,1015.71
2018-09-09T07:59:41.524Z,1015.67
2018-09-09T08:00:50.190Z,1015.65
2018-09-09T08:01:59.092Z,1015.68
2018-09-09T08:03:07.741Z,1015.71
2018-09-09T08:04:16.394Z,1015.73
2018-09-09T08:05:25.053Z,1015.7
2018-09-09T08:06:33.697Z,1015.7
2018-09-09T08:07:42.341Z,1015.7
2018-09-09T08:08:50.989Z,1015.72
2018-09-09T08:09:59.629Z,1015.72
2018-09-09T08:11:08.283Z,1015.72
2018-09-09T08:12:16.932Z,1015.73
2018-09-09T08:13:25.583Z,1015.7
2018-09-09T08:14:34.227Z,1015.7
2018-09-09T08:15:42.881Z,1015.75
2018-09-09T08:16:51.524Z,1015.71
2018-09-09T08:18:00.177Z,1015.7
2018-09-09T08:19:09.085Z,1015.68
2018-09-09T08:20:17.741Z,1015.65
2018-09-09T08:21:26.385Z,1015.59
2018-09-09T08:22:35.300Z,1015.58
2018-09-09T08:23:44.000Z,1015.55
2018-09-09T08:24:52.589Z,1015.57
2018-09-09T08:26:01.246Z,1015.51
2018-09-09T08:27:09.888Z,1015.5
2018-09-09T08:28:18.799Z,1015.52
2018-09-09T08:29:27.437Z,1015.54
2018-09-09T08:30:36.090Z,1015.55
2018-09-09T08:31:44.730Z,1015.54
2018-09-09T08:32:53.386Z,1015.52
2018-09-09T08:34:02.025Z,1015.51
2018-09-09T08:35:10.675Z,1015.51
2018-09-09T08:36:19.318Z,1015.51
2018-09-09T08:37:28.241Z,1015.52
2018-09-09T08:38:37.143Z,1015.56
2018-09-09T08:39:45.792Z,1015.58
2018-09-09T08:40:54.440Z,1015.57
2018-09-09T08:42:03.093Z,1015.59
2018-09-09T08:43:11.736Z,1015.61
2018-09-09T08:44:20.388Z,1015.61
2018-09-09T08:45:29.117Z,1015.59
2018-09-09T08:46:38.295Z,1015.66
2018-09-09T08:47:46.946Z,1015.65
2018-09-09T08:48:55.592Z,1015.68
2018-09-09T08:50:04.239Z,1015.69
2018-09-09T08:51:12.882Z,1015.67
2018-09-09T08:52:21.539Z,1015.66
2018-09-09T08:53:30.191Z,1015.64
2018-09-09T08:54:38.839Z,1015.66
2018-09-09T08:55:47.483Z,1015.63
2018-09-09T08:56:56.137Z,1015.61
2018-09-09T08:58:04.782Z,1015.63
2018-09-09T08:59:13.433Z,1015.6
2018-09-09T09:00:22.074Z,1015.59
2018-09-09T09:01:30.726Z,1015.59
2018-09-09T09:02:39.374Z,1015.59
2018-09-09T09:03:48.023Z,1015.56
2018-09-09T09:04:56.685Z,1015.57
2018-09-09T09:06:05.582Z,1015.57
2018-09-09T09:07:14.236Z,1015.55
2018-09-09T09:08:22.883Z,1015.49
2018-09-09T09:09:31.800Z,1015.51
2018-09-09T09:10:40.444Z,1015.52
2018-09-09T09:11:49.091Z,1015.53
2018-09-09T09:12:58.009Z,1015.57
2018-09-09T09:14:06.660Z,1015.54
2018-09-09T09:15:15.304Z,1015.52
2018-09-09T09:16:23.953Z,1015.53
2018-09-09T09:17:32.598Z,1015.53
2018-09-09T09:18:41.593Z,1015.49
2018-09-09T09:19:50.162Z,1015.5
2018-09-09T09:20:58.806Z,1015.45
2018-09-09T09:22:07.454Z,1015.46
2018-09-09T09:23:16.101Z,1015.43
2018-09-09T09:24:24.754Z,1015.45
2018-09-09T09:25:33.403Z,1015.42
2018-09-09T09:26:42.049Z,1015.43
2018-09-09T09:27:50.692Z,1015.47
2018-09-09T09:28:59.343Z,1015.44
2018-09-09T09:30:08.530Z,1015.49
2018-09-09T09:31:17.178Z,1015.45
2018-09-09T09:32:25.820Z,1015.49
2018-09-09T09:33:34.471Z,1015.52
2018-09-09T09:34:43.380Z,1015.53
2018-09-09T09:35:52.028Z,1015.56
2018-09-09T09:37:00.681Z,1015.51
2018-09-09T09:38:09.326Z,1015.53
2018-09-09T09:39:17.997Z,1015.57
2018-09-09T09:40:26.620Z,1015.59
2018-09-09T09:41:35.267Z,1015.62
2018-09-09T09:42:44.188Z,1015.59
2018-09-09T09:43:53.105Z,1015.66
2018-09-09T09:45:01.753Z,1015.62
2018-09-09T09:46:10.394Z,1015.63
2018-09-09T09:47:19.049Z,1015.64
2018-09-09T09:48:27.960Z,1015.64
2018-09-09T09:49:36.873Z,1015.67
2018-09-09T09:50:45.518Z,1015.7
2018-09-09T09:51:54.445Z,1015.66
2018-09-09T09:53:03.362Z,1015.65
2018-09-09T09:54:12.005Z,1015.62
2018-09-09T09:55:21.243Z,1015.61
2018-09-09T09:56:29.834Z,1015.61
2018-09-09T09:57:38.747Z,1015.65
2018-09-09T09:58:47.396Z,1015.69
2018-09-09T09:59:56.047Z,1015.66
2018-09-09T10:01:04.694Z,1015.68
2018-09-09T10:02:13.339Z,1015.66
2018-09-09T10:03:22.304Z,1015.66
2018-09-09T10:04:30.905Z,1015.67
2018-09-09T10:05:39.548Z,1015.64
2018-09-09T10:06:48.197Z,1015.62
2018-09-09T10:07:56.845Z,1015.61
2018-09-09T10:09:05.538Z,1015.6
2018-09-09T10:10:14.891Z,1015.6
2018-09-09T10:11:23.539Z,1015.6
2018-09-09T10:12:32.183Z,1015.6
2018-09-09T10:13:40.838Z,1015.59
2018-09-09T10:14:49.484Z,1015.59
2018-09-09T10:15:58.131Z,1015.55
2018-09-09T10:17:06.776Z,1015.59
2018-09-09T10:18:15.421Z,1015.58
2018-09-09T10:19:24.078Z,1015.57
2018-09-09T10:20:32.998Z,1015.63
2018-09-09T10:21:41.643Z,1015.64
2018-09-09T10:22:50.292Z,1015.64
2018-09-09T10:23:59.215Z,1015.6
2018-09-09T10:25:07.871Z,1015.6
2018-09-09T10:26:16.524Z,1015.63
2018-09-09T10:27:25.163Z,1015.6
2018-09-09T10:28:33.816Z,1015.58
2018-09-09T10:29:42.462Z,1015.55
2018-09-09T10:30:51.115Z,1015.57
2018-09-09T10:31:59.759Z,1015.54
2018-09-09T10:33:08.685Z,1015.53
2018-09-09T10:34:17.335Z,1015.57
2018-09-09T10:35:26.258Z,1015.54
2018-09-09T10:36:35.163Z,1015.52
2018-09-09T10:37:44.066Z,1015.53
2018-09-09T10:38:52.719Z,1015.52
2018-09-09T10:40:01.361Z,1015.53
2018-09-09T10:41:10.021Z,1015.49
2018-09-09T10:42:18.661Z,1015.53
2018-09-09T10:43:27.317Z,1015.52
2018-09-09T10:44:36.485Z,1015.55
2018-09-09T10:45:45.681Z,1015.53
2018-09-09T10:46:54.443Z,1015.55
2018-09-09T10:48:02.973Z,1015.55
2018-09-09T10:49:11.621Z,1015.55
2018-09-09T10:50:20.278Z,1015.62
2018-09-09T10:51:28.926Z,1015.59
2018-09-09T10:52:37.570Z,1015.57
2018-09-09T10:53:46.216Z,1015.67
2018-09-09T10:54:54.861Z,1015.6
2018-09-09T10:56:03.789Z,1015.64
2018-09-09T10:57:12.440Z,1015.68
2018-09-09T10:58:21.095Z,1015.7
2018-09-09T10:59:29.740Z,1015.68
2018-09-09T11:00:38.396Z,1015.67
2018-09-09T11:01:47.044Z,1015.71
2018-09-09T11:02:55.960Z,1015.79
2018-09-09T11:04:04.598Z,1015.7
2018-09-09T11:05:13.255Z,1015.7
2018-09-09T11:06:21.900Z,1015.75
2018-09-09T11:07:30.818Z,1015.69
2018-09-09T11:08:39.458Z,1015.66
2018-09-09T11:09:48.110Z,1015.7
2018-09-09T11:10:56.764Z,1015.68
2018-09-09T11:12:05.417Z,1015.69
2018-09-09T11:13:14.069Z,1015.69
2018-09-09T11:14:22.707Z,1015.74
2018-09-09T11:15:31.364Z,1015.74
2018-09-09T11:16:40.006Z,1015.77
2018-09-09T11:17:48.663Z,1015.78
2018-09-09T11:18:57.327Z,1015.85
2018-09-09T11:20:06.313Z,1015.79
2018-09-09T11:21:14.958Z,1015.81
2018-09-09T11:22:23.617Z,1015.78
2018-09-09T11:23:32.259Z,1015.83
2018-09-09T11:24:40.926Z,1015.79
2018-09-09T11:25:49.557Z,1015.77
2018-09-09T11:26:58.218Z,1015.79
2018-09-09T11:28:06.861Z,1015.75
2018-09-09T11:29:15.508Z,1015.78
2018-09-09T11:30:24.154Z,1015.8
2018-09-09T11:31:33.070Z,1015.85
2018-09-09T11:32:41.730Z,1015.84
2018-09-09T11:33:50.376Z,1015.81
2018-09-09T11:34:59.028Z,1015.81
2018-09-09T11:36:07.740Z,1015.79
2018-09-09T11:37:16.658Z,1015.73
2018-09-09T11:38:25.306Z,1015.75
2018-09-09T11:39:34.222Z,1015.76
2018-09-09T11:40:42.903Z,1015.74
2018-09-09T11:41:51.865Z,1015.77
2018-09-09T11:43:00.514Z,1015.79
2018-09-09T11:44:09.166Z,1015.78
2018-09-09T11:45:17.812Z,1015.78
2018-09-09T11:46:26.464Z,1015.72
2018-09-09T11:47:35.116Z,1015.76
2018-09-09T11:48:43.769Z,1015.75
2018-09-09T11:49:52.688Z,1015.77
2018-09-09T11:51:01.335Z,1015.73
2018-09-09T11:52:10.254Z,1015.74
2018-09-09T11:53:19.270Z,1015.7
2018-09-09T11:54:28.092Z,1015.64
2018-09-09T11:55:36.738Z,1015.65
2018-09-09T11:56:45.391Z,1015.67
2018-09-09T11:57:54.311Z,1015.68
2018-09-09T11:59:02.966Z,1015.61
2018-09-09T12:00:11.611Z,1015.65
2018-09-09T12:01:20.262Z,1015.6
2018-09-09T12:02:28.908Z,1015.62
2018-09-09T12:03:37.564Z,1015.57
2018-09-09T12:04:46.210Z,1015.56
2018-09-09T12:05:54.868Z,1015.5
2018-09-09T12:07:03.500Z,1015.52
2018-09-09T12:08:12.148Z,1015.47
2018-09-09T12:09:20.803Z,1015.45
2018-09-09T12:10:29.454Z,1015.42
2018-09-09T12:11:38.106Z,1015.37
2018-09-09T12:12:46.749Z,1015.34
2018-09-09T12:13:55.666Z,1015.4
2018-09-09T12:15:04.316Z,1015.51
2018-09-09T12:16:13.234Z,1015.52
2018-09-09T12:17:21.877Z,1015.55
2018-09-09T12:18:30.793Z,1015.54
2018-09-09T12:19:39.447Z,1015.53
2018-09-09T12:20:48.364Z,1015.5
2018-09-09T12:21:57.017Z,1015.48
2018-09-09T12:23:05.664Z,1015.43
2018-09-09T12:24:14.312Z,1015.53
2018-09-09T12:25:22.965Z,1015.52
2018-09-09T12:26:31.616Z,1015.53
2018-09-09T12:27:40.262Z,1015.48
2018-09-09T12:28:48.909Z,1015.51
2018-09-09T12:29:57.561Z,1015.44
2018-09-09T12:31:06.490Z,1015.45
2018-09-09T12:32:15.228Z,1015.43
2018-09-09T12:33:23.784Z,1015.42
2018-09-09T12:34:32.428Z,1015.4
2018-09-09T12:35:41.086Z,1015.41
2018-09-09T12:36:49.726Z,1015.35
2018-09-09T12:37:58.644Z,1015.37
2018-09-09T12:39:07.297Z,1015.3
2018-09-09T12:40:15.956Z,1015.26
2018-09-09T12:41:24.609Z,1015.28
2018-09-09T12:42:33.517Z,1015.23
2018-09-09T12:43:42.163Z,1015.24
2018-09-09T12:44:51.081Z,1015.23
2018-09-09T12:45:59.739Z,1015.18
2018-09-09T12:47:08.718Z,1015.21
2018-09-09T12:48:17.648Z,1015.17
2018-09-09T12:49:26.290Z,1015.17
2018-09-09T12:50:35.214Z,1015.18
2018-09-09T12:51:43.860Z,1015.19
2018-09-09T12:52:52.514Z,1015.18
2018-09-09T12:54:01.153Z,1015.23
2018-09-09T12:55:09.812Z,1015.23
2018-09-09T12:56:18.468Z,1015.24
2018-09-09T12:57:27.121Z,1015.28
2018-09-09T12:58:36.027Z,1015.23
2018-09-09T12:59:44.679Z,1015.21
2018-09-09T13:00:53.333Z,1015.22
2018-09-09T13:02:01.984Z,1015.23
2018-09-09T13:03:10.637Z,1015.28
2018-09-09T13:04:19.277Z,1015.24
2018-09-09T13:05:28.192Z,1015.32
2018-09-09T13:06:36.842Z,1015.27
2018-09-09T13:07:45.500Z,1015.28
2018-09-09T13:08:54.141Z,1015.27
2018-09-09T13:10:02.794Z,1015.32
2018-09-09T13:11:11.969Z,1015.3
2018-09-09T13:12:20.626Z,1015.29
2018-09-09T13:13:29.267Z,1015.26
2018-09-09T13:14:37.919Z,1015.25
2018-09-09T13:15:46.569Z,1015.22
2018-09-09T13:16:55.232Z,1015.25
2018-09-09T13:18:03.881Z,1015.23
2018-09-09T13:19:12.552Z,1015.14
2018-09-09T13:20:21.177Z,1015.1
2018-09-09T13:21:29.825Z,1015.16
2018-09-09T13:22:38.485Z,1015.13
2018-09-09T13:23:47.129Z,1015.11
2018-09-09T13:24:55.786Z,1015.14
2018-09-09T13:26:04.430Z,1015.16
2018-09-09T13:27:13.091Z,1015.21
2018-09-09T13:28:21.736Z,1015.26
2018-09-09T13:29:30.388Z,1015.25
2018-09-09T13:30:39.040Z,1015.21
2018-09-09T13:31:47.680Z,1015.23
2018-09-09T13:32:56.333Z,1015.15
2018-09-09T13:34:04.980Z,1015.14
2018-09-09T13:35:13.639Z,1015.18
2018-09-09T13:36:22.287Z,1015.15
2018-09-09T13:37:30.931Z,1015.17
2018-09-09T13:38:39.578Z,1015.22
2018-09-09T13:39:48.226Z,1015.21
2018-09-09T13:40:56.886Z,1015.22
2018-09-09T13:42:05.530Z,1015.26
2018-09-09T13:43:14.189Z,1015.21
2018-09-09T13:44:23.090Z,1015.25
2018-09-09T13:45:31.750Z,1015.27
2018-09-09T13:46:40.666Z,1015.26
2018-09-09T13:47:49.586Z,1015.25
2018-09-09T13:48:58.585Z,1015.22
2018-09-09T13:50:07.244Z,1015.26
2018-09-09T13:51:15.893Z,1015.26
2018-09-09T13:52:24.544Z,1015.22
2018-09-09T13:53:33.450Z,1015.23
2018-09-09T13:54:42.641Z,1015.25